Time;durP1;ratioP1;P1;durP2;ratioP2;P2;SDS_P1;SDS_P2;PMS_P1;PMS_P2;Temp;Humidity;BMP_temperature;BMP_pressure;BME280_temperature;BME280_humidity;BME280_pressure;Samples;Min_cycle;Max_cycle;Signal;HPM_P1;HPM_P2
2022/06/25 00:03:36;;;;;;;5.18;3.20;;;;;;;20.72;54.03;98750.34;8436929;28;20048;-77
2022/06/25 00:07:37;;;;;;;8.55;3.20;;;;;;;20.69;54.09;98740.13;8442286;28;20054;-77
2022/06/25 00:15:57;;;;;;;7.25;3.20;;;;;;;20.64;54.62;98725.63;8446545;28;20485;-78
2022/06/25 00:19:58;;;;;;;8.18;3.20;;;;;;;20.67;54.53;98726.81;8448809;28;20355;-78
2022/06/25 00:24:00;;;;;;;6.97;3.20;;;;;;;20.69;54.69;98718.19;8444910;28;20051;-77
2022/06/25 00:28:01;;;;;;;6.30;3.42;;;;;;;20.67;54.99;98716.59;8441099;28;20532;-78
2022/06/25 00:32:04;;;;;;;6.13;3.80;;;;;;;20.67;54.94;98705.63;8440825;28;20077;-78
2022/06/25 00:36:06;;;;;;;9.93;3.25;;;;;;;20.72;54.71;98707.25;8438056;28;20048;-78
2022/06/25 00:40:08;;;;;;;5.25;3.30;;;;;;;20.74;54.92;98693.13;8439340;28;20047;-78
2022/06/25 00:44:10;;;;;;;7.07;3.35;;;;;;;20.77;55.00;98693.16;8467632;27;20047;-78
2022/06/25 00:48:11;;;;;;;5.00;3.08;;;;;;;20.82;54.71;98694.72;8435556;28;20039;-78
2022/06/25 00:52:14;;;;;;;6.80;3.47;;;;;;;20.84;54.64;98684.13;8400802;28;20422;-79
2022/06/25 00:56:16;;;;;;;7.80;3.17;;;;;;;20.83;54.69;98685.34;8438690;28;20423;-78
2022/06/25 01:00:20;;;;;;;6.88;3.47;;;;;;;20.82;54.70;98683.75;8438706;28;20062;-77
2022/06/25 01:04:21;;;;;;;11.18;3.97;;;;;;;20.78;54.78;98685.72;8438527;28;20101;-78
2022/06/25 01:08:22;;;;;;;5.40;3.15;;;;;;;20.77;54.54;98693.16;8432738;28;20134;-77
2022/06/25 01:12:23;;;;;;;10.32;3.22;;;;;;;20.73;54.79;98702.53;8436785;28;20036;-78
2022/06/25 01:16:25;;;;;;;9.93;3.53;;;;;;;20.66;55.03;98703.28;8439248;28;20100;-78
2022/06/25 01:20:26;;;;;;;7.07;4.07;;;;;;;20.55;55.47;98697.75;8433997;28;20036;-78
2022/06/25 01:24:27;;;;;;;7.38;3.65;;;;;;;20.45;55.62;98693.00;8439760;28;20044;-78
2022/06/25 01:28:28;;;;;;;8.13;3.85;;;;;;;20.37;55.95;98691.38;8433111;28;20518;-78
2022/06/25 01:32:29;;;;;;;6.38;3.00;;;;;;;20.30;56.32;98696.81;8436792;28;20052;-78
2022/06/25 01:36:30;;;;;;;10.13;3.60;;;;;;;20.22;56.57;98697.91;8434267;28;20044;-78
2022/06/25 01:40:32;;;;;;;6.90;3.60;;;;;;;20.15;56.56;98695.13;8443286;28;20130;-78
2022/06/25 01:44:36;;;;;;;6.20;3.70;;;;;;;20.09;56.85;98719.38;8440247;28;20039;-77
2022/06/25 01:48:37;;;;;;;6.53;3.75;;;;;;;20.03;57.26;98709.16;8435875;28;20468;-79
2022/06/25 01:52:38;;;;;;;10.82;3.58;;;;;;;19.97;57.41;98705.19;8439964;28;20056;-78
2022/06/25 01:56:39;;;;;;;8.88;3.78;;;;;;;19.90;57.76;98710.59;8442044;28;20564;-77
2022/06/25 02:00:40;;;;;;;7.35;3.78;;;;;;;19.83;57.95;98716.06;8438085;28;20060;-78
2022/06/25 02:04:41;;;;;;;5.93;3.83;;;;;;;19.80;57.95;98718.38;8437983;28;20134;-78
2022/06/25 02:08:42;;;;;;;9.35;4.22;;;;;;;19.76;58.16;98717.56;8425979;28;20051;-78
2022/06/25 02:12:46;;;;;;;5.70;3.80;;;;;;;19.74;58.49;98725.38;8419965;28;20123;-79
2022/06/25 02:16:47;;;;;;;8.32;4.75;;;;;;;19.75;58.51;98726.94;8436692;28;20510;-78
2022/06/25 02:20:48;;;;;;;7.20;3.50;;;;;;;19.77;58.31;98719.13;8438379;28;20050;-78
2022/06/25 02:24:52;;;;;;;7.82;3.80;;;;;;;19.81;58.44;98714.47;8434146;28;20059;-78
2022/06/25 02:28:53;;;;;;;6.22;4.05;;;;;;;19.82;58.54;98720.75;8442373;28;20427;-78
2022/06/25 02:32:54;;;;;;;7.97;3.60;;;;;;;19.83;58.36;98717.59;8437549;28;20097;-78
2022/06/25 02:36:55;;;;;;;9.57;4.05;;;;;;;19.88;58.24;98726.66;8441377;28;20068;-78
2022/06/25 02:40:59;;;;;;;12.77;4.15;;;;;;;19.86;58.62;98737.19;8434662;28;20520;-78
2022/06/25 02:44:59;;;;;;;6.78;3.65;;;;;;;19.88;58.47;98729.41;8437077;28;20499;-77
2022/06/25 02:49:01;;;;;;;8.77;3.83;;;;;;;19.89;58.47;98730.94;8437540;28;20040;-78
2022/06/25 02:53:02;;;;;;;6.80;4.13;;;;;;;19.91;58.40;98737.63;8434128;28;20035;-78
2022/06/25 03:01:23;;;;;;;8.23;3.80;;;;;;;19.96;58.30;98747.47;8439100;28;20052;-78
2022/06/25 03:05:26;;;;;;;8.25;3.83;;;;;;;19.99;58.46;98746.69;8432646;28;20044;-78
2022/06/25 03:09:27;;;;;;;7.60;3.85;;;;;;;20.00;58.74;98753.75;8436517;28;20060;-78
2022/06/25 03:13:31;;;;;;;10.55;3.58;;;;;;;19.95;58.90;98746.66;8450503;27;20048;-78
2022/06/25 03:17:32;;;;;;;6.20;3.92;;;;;;;19.95;58.96;98746.66;8471180;27;20068;-78
2022/06/25 03:21:33;;;;;;;8.38;4.10;;;;;;;20.01;58.84;98755.34;8446951;28;20036;-78
2022/06/25 03:25:34;;;;;;;20.33;4.93;;;;;;;20.04;58.86;98754.59;8433043;28;20085;-78
2022/06/25 03:29:35;;;;;;;9.68;4.43;;;;;;;20.06;58.84;98741.28;8431861;28;20040;-78
2022/06/25 03:33:35;;;;;;;7.05;4.05;;;;;;;20.05;58.80;98745.97;8429123;28;20150;-78
2022/06/25 03:37:37;;;;;;;7.47;4.38;;;;;;;20.00;59.33;98764.72;8433059;28;20108;-78
2022/06/25 03:41:38;;;;;;;5.97;4.00;;;;;;;19.98;59.35;98761.59;8432460;28;20067;-78
2022/06/25 03:45:39;;;;;;;8.23;4.15;;;;;;;19.95;59.44;98765.06;8435981;28;20510;-78
2022/06/25 03:49:40;;;;;;;16.92;3.97;;;;;;;19.94;59.33;98771.72;8435850;28;20131;-78
2022/06/25 03:53:41;;;;;;;13.80;4.70;;;;;;;19.91;59.62;98772.47;8436431;28;20047;-78
2022/06/25 03:57:41;;;;;;;7.22;4.43;;;;;;;19.92;59.82;98779.53;8434145;28;20306;-77
2022/06/25 04:01:43;;;;;;;7.10;4.22;;;;;;;19.91;59.86;98788.91;8436569;28;20126;-79
2022/06/25 04:05:44;;;;;;;9.18;4.93;;;;;;;19.91;60.32;98794.41;8429334;28;20044;-77
2022/06/25 04:09:45;;;;;;;8.73;4.13;;;;;;;19.92;60.41;98790.50;8430697;28;20048;-77
2022/06/25 04:13:46;;;;;;;7.80;4.60;;;;;;;19.91;60.73;98788.91;8432253;28;20566;-77
2022/06/25 04:17:47;;;;;;;8.45;4.25;;;;;;;19.96;60.53;98799.53;8439133;28;20039;-78
2022/06/25 04:21:49;;;;;;;9.10;4.50;;;;;;;20.02;60.34;98800.78;8439639;28;20052;-78
2022/06/25 04:25:51;;;;;;;13.48;4.53;;;;;;;20.07;60.34;98803.16;8440088;28;20039;-77
2022/06/25 04:29:51;;;;;;;8.55;4.10;;;;;;;20.13;60.79;98818.09;8436319;28;20509;-77
2022/06/25 04:33:53;;;;;;;9.70;4.65;;;;;;;20.19;60.82;98813.84;8435182;28;20066;-78
2022/06/25 04:37:54;;;;;;;7.00;4.55;;;;;;;20.22;61.33;98818.56;8441346;28;20048;-78
2022/06/25 04:41:55;;;;;;;8.00;4.07;;;;;;;20.33;60.97;98827.69;8443342;28;20127;-78
2022/06/25 04:45:56;;;;;;;8.88;4.75;;;;;;;20.44;61.09;98834.06;8448339;28;20158;-78
2022/06/25 04:49:57;;;;;;;8.70;4.30;;;;;;;20.50;60.77;98837.22;8443577;28;20050;-78
2022/06/25 04:53:58;;;;;;;10.50;4.93;;;;;;;20.60;60.77;98836.50;8439001;28;20051;-78
2022/06/25 04:57:59;;;;;;;11.05;4.78;;;;;;;20.74;60.72;98835.81;8445849;28;20092;-77
2022/06/25 05:01:59;;;;;;;9.43;4.72;;;;;;;20.76;60.90;98838.97;8453995;28;20135;-78
2022/06/25 05:06:03;;;;;;;8.25;4.50;;;;;;;20.82;60.81;98842.94;8449484;28;20112;-78
2022/06/25 05:10:04;;;;;;;7.93;4.63;;;;;;;20.91;60.53;98840.63;8453989;28;20412;-78
2022/06/25 05:14:06;;;;;;;11.90;4.43;;;;;;;21.10;60.18;98837.56;8447058;28;20501;-77
2022/06/25 05:18:08;;;;;;;10.25;4.53;;;;;;;21.20;60.05;98836.91;8453449;28;20051;-78
2022/06/25 05:22:09;;;;;;;14.50;5.35;;;;;;;21.21;60.02;98843.94;8446746;28;20416;-77
2022/06/25 05:26:09;;;;;;;9.48;4.72;;;;;;;21.21;60.13;98849.44;8445846;28;20185;-78
2022/06/25 05:30:11;;;;;;;11.20;4.63;;;;;;;21.28;60.25;98848.69;8441535;28;20044;-78
2022/06/25 05:34:11;;;;;;;12.63;5.20;;;;;;;21.41;60.20;98852.69;8450115;28;20533;-78
2022/06/25 05:38:12;;;;;;;13.65;4.85;;;;;;;21.53;59.95;98865.25;8448722;28;20391;-78
2022/06/25 05:42:13;;;;;;;13.05;5.45;;;;;;;21.60;59.81;98876.28;8458415;28;20127;-78
2022/06/25 05:46:14;;;;;;;9.60;4.75;;;;;;;21.62;59.70;98869.25;8450974;28;20147;-78
2022/06/25 05:50:15;;;;;;;7.75;4.65;;;;;;;21.62;59.77;98879.44;8451203;28;20055;-78
2022/06/25 05:54:16;;;;;;;8.05;4.80;;;;;;;21.83;59.72;98874.00;8452063;28;20047;-78
2022/06/25 05:58:17;;;;;;;6.88;4.75;;;;;;;22.03;59.15;98867.00;8447418;28;20099;-77
2022/06/25 06:02:19;;;;;;;12.02;5.00;;;;;;;22.23;58.95;98865.47;8444918;28;20044;-77
2022/06/25 06:06:19;;;;;;;8.75;5.38;;;;;;;22.35;58.47;98869.00;8458961;28;20078;-78
2022/06/25 06:10:20;;;;;;;8.70;4.65;;;;;;;22.39;58.30;98862.31;8458506;28;20104;-77
2022/06/25 06:14:22;;;;;;;8.02;4.35;;;;;;;22.45;58.22;98865.47;8432909;28;20475;-78
2022/06/25 06:18:23;;;;;;;9.88;4.13;;;;;;;22.57;57.97;98871.38;8443995;28;20044;-78
2022/06/25 06:22:24;;;;;;;11.20;4.95;;;;;;;22.82;57.47;98879.63;8442167;28;20522;-78
2022/06/25 06:26:25;;;;;;;9.02;4.60;;;;;;;23.07;57.18;98880.34;8441033;28;20044;-78
2022/06/25 06:30:26;;;;;;;8.90;4.65;;;;;;;23.27;56.03;98877.13;8446840;28;20082;-78
2022/06/25 06:34:27;;;;;;;14.95;4.63;;;;;;;23.39;56.27;98873.97;8460986;28;20050;-78
2022/06/25 06:38:28;;;;;;;7.18;3.60;;;;;;;23.40;54.92;98878.28;8454537;28;20487;-78
2022/06/25 06:42:29;;;;;;;5.35;3.42;;;;;;;23.41;54.66;98877.13;8442861;28;20125;-78
2022/06/25 06:46:30;;;;;;;7.65;3.63;;;;;;;23.48;55.01;98871.59;8444740;28;20070;-78
2022/06/25 06:50:31;;;;;;;8.70;3.58;;;;;;;23.63;54.09;98873.13;8445210;28;20071;-77
2022/06/25 06:54:32;;;;;;;6.32;3.63;;;;;;;23.71;54.49;98874.63;8451550;28;20067;-78
2022/06/25 06:58:33;;;;;;;5.50;4.00;;;;;;;23.80;54.02;98872.22;8453008;28;20448;-78
2022/06/25 07:02:34;;;;;;;7.25;3.47;;;;;;;23.87;54.00;98872.19;8447777;28;20091;-78
2022/06/25 07:06:35;;;;;;;9.20;3.47;;;;;;;24.04;54.41;98880.75;8436542;28;20093;-78
2022/06/25 07:10:38;;;;;;;8.75;3.60;;;;;;;24.18;53.88;98880.69;8399104;28;20055;-78
2022/06/25 07:14:39;;;;;;;5.22;3.22;;;;;;;24.26;53.71;98882.22;8442878;28;20143;-78
2022/06/25 07:18:40;;;;;;;31.75;4.05;;;;;;;24.23;53.54;98877.50;8435669;28;20131;-78
2022/06/25 07:22:41;;;;;;;13.80;3.45;;;;;;;24.20;54.05;98878.31;8416918;28;20040;-78
2022/06/25 07:26:42;;;;;;;4.72;3.60;;;;;;;24.26;53.65;98882.22;8428303;28;20577;-78
2022/06/25 07:30:43;;;;;;;8.18;3.35;;;;;;;24.25;52.75;98886.16;8445923;28;20058;-78
2022/06/25 07:34:44;;;;;;;5.40;3.17;;;;;;;24.19;52.18;98890.53;8435872;28;20089;-79
2022/06/25 07:38:47;;;;;;;76.72;4.90;;;;;;;24.15;52.58;98893.31;8441049;28;20051;-78
2022/06/25 07:42:48;;;;;;;6.35;3.17;;;;;;;24.13;53.55;98900.41;8444154;28;20050;-78
2022/06/25 07:46:49;;;;;;;10.95;3.30;;;;;;;24.17;53.04;98901.16;8444502;28;20052;-79
2022/06/25 07:55:09;;;;;;;4.88;3.00;;;;;;;24.27;53.06;98908.63;8430630;28;20094;-79
2022/06/25 07:59:10;;;;;;;7.28;3.45;;;;;;;24.42;53.00;98901.81;8452145;28;20047;-79
2022/06/25 08:03:12;;;;;;;9.10;3.50;;;;;;;24.45;52.60;98911.25;8450603;28;20464;-79
2022/06/25 08:07:13;;;;;;;4.28;3.30;;;;;;;24.61;52.44;98912.31;8454774;27;20054;-85
2022/06/25 08:11:14;;;;;;;7.10;3.20;;;;;;;24.70;52.36;98912.63;8457281;28;20114;-84
2022/06/25 08:15:16;;;;;;;5.60;3.25;;;;;;;24.94;52.14;98921.91;8436059;28;20044;-83
2022/06/25 08:19:17;;;;;;;6.72;3.20;;;;;;;25.13;51.75;98920.53;8446828;28;20089;-81
2022/06/25 08:23:18;;;;;;;7.68;3.42;;;;;;;25.10;51.07;98929.66;8461689;28;20078;-81
2022/06/25 08:27:20;;;;;;;8.65;3.38;;;;;;;25.21;51.03;98930.34;8431297;28;20498;-86
2022/06/25 08:31:20;;;;;;;7.88;3.17;;;;;;;25.37;50.44;98927.78;8458980;28;20054;-82
2022/06/25 08:35:25;;;;;;;6.63;3.28;;;;;;;25.55;51.18;98933.91;8445073;28;20112;-82
2022/06/25 08:39:25;;;;;;;6.75;3.22;;;;;;;25.70;50.95;98939.31;8451866;28;20044;-81
2022/06/25 08:43:28;;;;;;;6.32;3.15;;;;;;;25.80;49.75;98943.91;8409752;28;20135;-79
2022/06/25 08:47:29;;;;;;;6.45;3.13;;;;;;;25.83;49.87;98937.53;8441639;27;20043;-80
2022/06/25 08:51:30;;;;;;;6.95;3.33;;;;;;;25.97;50.18;98937.34;8480236;27;20044;-79
2022/06/25 08:55:34;;;;;;;4.65;2.88;;;;;;;26.12;49.72;98955.31;8432470;28;20085;-80
2022/06/25 08:59:35;;;;;;;9.15;3.58;;;;;;;26.24;49.11;98940.94;8436855;28;20056;-79
2022/06/25 09:03:39;;;;;;;8.43;3.03;;;;;;;26.35;48.48;98941.59;8477986;27;20052;-79
2022/06/25 09:07:53;;;;;;;7.68;3.17;;;;;;;26.56;48.73;98950.75;8451852;28;20078;-79
2022/06/25 09:12:04;;;;;;;5.45;3.10;;;;;;;26.58;47.20;98948.38;8441592;28;20043;-80
2022/06/25 09:16:05;;;;;;;6.95;3.45;;;;;;;26.60;48.04;98951.47;8438353;28;20050;-80
2022/06/25 09:20:07;;;;;;;8.75;3.30;;;;;;;26.75;47.71;98952.84;8446437;28;20044;-80
2022/06/25 09:24:11;;;;;;;6.53;3.38;;;;;;;26.95;47.27;98948.19;8431868;28;20044;-79
2022/06/25 09:28:31;;;;;;;6.20;3.20;;;;;;;27.10;46.73;98952.25;8423442;28;20544;-80
2022/06/25 09:32:46;;;;;;;8.70;3.30;;;;;;;27.21;46.50;98944.53;8438012;28;20047;-81
2022/06/25 09:36:47;;;;;;;6.15;3.08;;;;;;;27.22;45.37;98954.44;8445737;28;20186;-80
2022/06/25 09:40:52;;;;;;;5.72;2.90;;;;;;;27.27;45.94;98956.72;8461619;28;20131;-81
2022/06/25 09:45:11;;;;;;;22.05;5.32;;;;;;;27.40;46.13;98953.31;8464032;28;20055;-80
2022/06/25 09:49:22;;;;;;;6.25;3.85;;;;;;;27.61;45.57;98934.28;8454660;28;20096;-79
2022/06/25 09:53:25;;;;;;;10.25;3.47;;;;;;;27.79;45.23;98936.72;8458459;28;20043;-79
2022/06/25 09:57:26;;;;;;;14.85;4.95;;;;;;;27.97;45.31;98937.09;8429461;28;20088;-80
2022/06/25 10:01:30;;;;;;;7.05;2.95;;;;;;;28.06;44.17;98940.09;8444885;28;20048;-78
2022/06/25 10:05:38;;;;;;;8.20;2.95;;;;;;;28.16;43.83;98943.09;8444011;28;20557;-79
2022/06/25 10:09:40;;;;;;;65.97;7.05;;;;;;;28.24;43.14;98934.16;8453720;28;20067;-79
2022/06/25 10:13:42;;;;;;;8.23;3.47;;;;;;;28.36;43.23;98929.91;8445180;28;20080;-79
2022/06/25 10:17:48;;;;;;;6.63;2.70;;;;;;;28.54;43.01;98930.28;8436115;28;20126;-79
2022/06/25 10:21:49;;;;;;;5.93;3.38;;;;;;;28.73;42.99;98937.78;8436500;28;20495;-78
2022/06/25 10:25:50;;;;;;;8.10;3.63;;;;;;;28.81;41.35;98932.84;8446131;28;20052;-78
2022/06/25 10:29:53;;;;;;;8.43;3.35;;;;;;;28.87;41.50;98931.09;8433756;28;20051;-79
2022/06/25 10:33:56;;;;;;;8.80;3.20;;;;;;;28.91;41.09;98943.69;8450156;28;20044;-79
2022/06/25 10:38:21;;;;;;;5.63;3.25;;;;;;;29.00;40.50;98947.84;8452953;28;20044;-78
2022/06/25 10:46:49;;;;;;;8.93;3.65;;;;;;;29.01;41.38;98936.28;8429548;28;20054;-81
2022/06/25 10:50:50;;;;;;;8.30;3.60;;;;;;;29.42;40.76;98932.84;8441686;28;20048;-79
2022/06/25 10:54:52;;;;;;;6.75;3.97;;;;;;;29.34;41.19;98937.03;8445983;27;20438;-80
2022/06/25 10:58:55;;;;;;;6.68;3.58;;;;;;;29.60;40.47;98927.56;8453691;28;20035;-80
2022/06/25 11:02:56;;;;;;;5.60;3.13;;;;;;;29.79;39.81;98917.47;8444063;28;20052;-80
2022/06/25 11:07:11;;;;;;;5.25;3.28;;;;;;;29.98;39.58;98919.28;8482427;27;20510;-81
2022/06/25 11:11:13;;;;;;;11.23;3.55;;;;;;;29.79;39.34;98917.47;8459188;28;20052;-80
2022/06/25 11:15:14;;;;;;;8.98;3.40;;;;;;;29.75;40.04;98917.56;8474531;27;20084;-80
2022/06/25 11:19:18;;;;;;;10.02;3.40;;;;;;;29.91;40.42;98918.75;8482627;28;20051;-80
2022/06/25 11:23:19;;;;;;;7.85;3.80;;;;;;;30.05;39.65;98923.88;8482036;27;20054;-79
2022/06/25 11:31:43;;;;;;;8.20;3.83;;;;;;;30.26;38.97;98934.38;8486009;27;20063;-81
2022/06/25 11:35:45;;;;;;;4.60;3.30;;;;;;;30.38;37.61;98930.81;8472364;27;20164;-80
2022/06/25 11:39:47;;;;;;;9.02;3.72;;;;;;;30.15;38.81;98933.91;8464918;27;20395;-79
2022/06/25 11:43:49;;;;;;;4.82;3.33;;;;;;;30.30;38.65;98929.44;8457275;27;20411;-79
2022/06/25 11:47:50;;;;;;;6.60;3.85;;;;;;;30.38;38.40;98930.81;8439441;28;20076;-80
2022/06/25 11:51:55;;;;;;;7.57;3.58;;;;;;;30.33;38.52;98938.94;8445151;28;20518;-80
2022/06/25 11:56:01;;;;;;;5.53;3.58;;;;;;;30.33;38.50;98934.16;8442661;28;20058;-81
2022/06/25 12:00:03;;;;;;;4.78;3.60;;;;;;;30.36;38.10;98916.53;8454558;28;20487;-81
2022/06/25 12:04:04;;;;;;;6.40;3.65;;;;;;;30.51;37.90;98931.59;8456734;28;20044;-79
2022/06/25 12:08:05;;;;;;;8.15;3.60;;;;;;;30.71;37.39;98927.78;8439801;28;20058;-81
2022/06/25 12:12:06;;;;;;;4.53;3.35;;;;;;;30.88;36.94;98924.41;8456725;28;20118;-81
2022/06/25 12:16:07;;;;;;;9.23;4.13;;;;;;;30.72;37.60;98927.31;8455378;27;20043;-84
2022/06/25 12:20:12;;;;;;;11.60;3.97;;;;;;;30.49;38.60;98931.28;8462901;28;20043;-83
2022/06/25 12:24:17;;;;;;;5.22;3.90;;;;;;;30.63;38.10;98925.22;8455265;28;20047;-81
2022/06/25 12:28:39;;;;;;;9.15;4.30;;;;;;;30.65;38.67;98929.59;8400714;28;20051;-82
2022/06/25 12:32:41;;;;;;;12.20;3.38;;;;;;;30.17;38.71;98928.69;8454429;28;20075;-81
2022/06/25 12:36:42;;;;;;;6.78;3.78;;;;;;;30.39;38.55;98926.81;8456795;28;20047;-81
2022/06/25 12:40:45;;;;;;;8.25;3.50;;;;;;;31.01;37.44;98918.78;8413219;28;20043;-82
2022/06/25 12:44:46;;;;;;;7.25;3.78;;;;;;;31.38;37.53;98934.66;8453678;28;20089;-81
2022/06/25 12:49:02;;;;;;;6.55;3.15;;;;;;;31.69;36.28;98925.59;8452786;28;20040;-82
2022/06/25 12:53:08;;;;;;;10.00;4.30;;;;;;;31.76;35.68;98916.94;8431321;28;20064;-81
2022/06/25 12:57:25;;;;;;;5.90;3.17;;;;;;;31.34;34.61;98928.41;8436560;28;20505;-80
2022/06/25 13:01:30;;;;;;;6.25;3.70;;;;;;;31.13;36.50;98928.38;8446037;28;20048;-79
2022/06/25 13:05:32;;;;;;;11.68;3.63;;;;;;;31.31;36.15;98934.88;8439306;28;20035;-81
2022/06/25 13:09:33;;;;;;;10.40;3.17;;;;;;;31.58;34.86;98936.34;8435922;28;20048;-81
2022/06/25 13:13:34;;;;;;;10.95;3.30;;;;;;;31.39;35.07;98936.22;8458207;28;20403;-79
2022/06/25 13:17:35;;;;;;;8.45;2.95;;;;;;;31.15;34.86;98943.44;8438352;28;20079;-78
2022/06/25 13:21:36;;;;;;;7.53;2.83;;;;;;;30.96;35.38;98936.09;8441973;28;20048;-77
2022/06/25 13:25:37;;;;;;;10.98;2.95;;;;;;;30.96;35.05;98942.47;8447738;28;20078;-80
2022/06/25 13:29:38;;;;;;;5.95;2.85;;;;;;;30.87;35.51;98936.03;8431147;28;20059;-81
2022/06/25 13:33:39;;;;;;;8.10;2.65;;;;;;;30.89;35.86;98939.13;8444233;28;20146;-80
2022/06/25 13:37:40;;;;;;;11.00;2.67;;;;;;;30.73;36.03;98934.47;8419966;28;20058;-80
2022/06/25 13:41:41;;;;;;;9.45;3.08;;;;;;;32.11;34.18;98935.16;8454908;28;20143;-81
2022/06/25 13:45:42;;;;;;;5.78;2.40;;;;;;;33.93;31.52;98934.69;8454694;28;20051;-81
2022/06/25 13:49:43;;;;;;;11.02;3.45;;;;;;;35.02;29.59;98927.81;8449210;28;20051;-83
2022/06/25 13:53:44;;;;;;;7.53;2.75;;;;;;;35.70;29.28;98930.72;8453326;28;20051;-79
2022/06/25 13:57:45;;;;;;;11.63;2.75;;;;;;;35.91;28.55;98944.41;8437277;28;20131;-81
2022/06/25 14:01:46;;;;;;;10.13;3.20;;;;;;;36.22;28.29;98938.28;8438920;28;20061;-80
2022/06/25 14:05:47;;;;;;;11.68;2.88;;;;;;;35.00;29.44;98935.97;8415819;28;20122;-81
2022/06/25 14:09:48;;;;;;;7.38;3.55;;;;;;;34.74;29.46;98930.81;8452340;28;20044;-82
2022/06/25 14:13:50;;;;;;;8.63;3.28;;;;;;;35.85;27.89;98931.53;8444648;28;20082;-80
2022/06/25 14:17:51;;;;;;;5.90;2.63;;;;;;;36.81;26.94;98926.91;8443944;28;20048;-80
2022/06/25 14:21:52;;;;;;;10.23;3.38;;;;;;;37.39;26.41;98941.97;8439977;28;20075;-81
2022/06/25 14:25:53;;;;;;;5.43;3.38;;;;;;;38.11;25.22;98933.53;8398323;28;20051;-80
2022/06/25 14:29:54;;;;;;;6.28;2.33;;;;;;;38.88;24.28;98928.41;8433241;28;20415;-81
2022/06/25 14:33:55;;;;;;;6.07;2.85;;;;;;;39.97;23.91;98926.97;8464503;28;20078;-79
2022/06/25 14:42:21;;;;;;;4.80;2.67;;;;;;;39.81;23.23;98930.56;8450919;28;20039;-80
2022/06/25 14:46:25;;;;;;;5.63;2.47;;;;;;;39.42;23.46;98919.94;8462967;28;20085;-80
2022/06/25 14:50:26;;;;;;;7.20;2.65;;;;;;;39.92;22.88;98927.75;8459044;28;20040;-80
2022/06/25 14:54:27;;;;;;;6.65;2.90;;;;;;;39.86;23.05;98912.84;8454615;28;20035;-81
2022/06/25 14:58:28;;;;;;;5.40;2.45;;;;;;;40.26;23.29;98906.66;8462396;28;20542;-81
2022/06/25 15:02:29;;;;;;;3.38;2.22;;;;;;;39.27;24.10;98897.53;8456573;28;20036;-81
2022/06/25 15:06:30;;;;;;;7.93;2.08;;;;;;;38.44;24.38;98916.84;8457333;28;20043;-81
2022/06/25 15:10:31;;;;;;;5.22;2.40;;;;;;;37.84;25.03;98910.22;8441852;28;20052;-81
2022/06/25 15:14:32;;;;;;;5.10;2.20;;;;;;;36.62;26.28;98914.38;8435681;28;20047;-80
2022/06/25 15:18:33;;;;;;;6.97;2.85;;;;;;;35.60;27.52;98910.34;8441399;28;20552;-80
2022/06/25 15:22:35;;;;;;;5.88;2.40;;;;;;;34.77;29.18;98917.09;8433664;28;20052;-80
2022/06/25 15:26:36;;;;;;;11.73;2.80;;;;;;;34.06;29.82;98909.28;8460304;28;20063;-81
2022/06/25 15:30:37;;;;;;;9.73;2.80;;;;;;;34.10;30.04;98915.50;8437218;28;20101;-80
2022/06/25 15:34:38;;;;;;;7.15;3.00;;;;;;;34.95;29.12;98912.13;8451027;28;20048;-81
2022/06/25 15:38:41;;;;;;;4.20;3.10;;;;;;;36.17;26.76;98908.06;8430798;28;20395;-80
2022/06/25 15:42:41;;;;;;;5.35;2.60;;;;;;;36.49;26.27;98911.09;8440951;28;20035;-81
2022/06/25 15:46:43;;;;;;;9.27;2.70;;;;;;;35.92;27.18;98911.44;8450382;28;20080;-80
2022/06/25 15:50:44;;;;;;;4.68;2.58;;;;;;;34.80;28.50;98916.13;8440647;28;20044;-80
2022/06/25 15:54:45;;;;;;;7.13;2.97;;;;;;;33.45;30.17;98911.25;8473682;27;20055;-79
2022/06/25 16:03:07;;;;;;;7.47;2.40;;;;;;;32.76;30.49;98909.03;8464934;27;20063;-82
2022/06/25 16:07:08;;;;;;;6.43;2.33;;;;;;;32.78;30.41;98903.75;8467175;27;20143;-80
2022/06/25 16:15:29;;;;;;;5.63;2.30;;;;;;;32.90;30.37;98911.22;8452077;28;20044;-82
2022/06/25 16:19:30;;;;;;;11.57;2.88;;;;;;;32.92;30.26;98919.94;8457031;28;20048;-79
2022/06/25 16:23:31;;;;;;;9.75;2.90;;;;;;;32.68;30.51;98916.13;8460767;28;20539;-82
2022/06/25 16:27:32;;;;;;;8.02;2.78;;;;;;;33.29;29.66;98923.56;8465362;28;20411;-81
2022/06/25 16:31:34;;;;;;;7.78;2.70;;;;;;;33.37;29.30;98921.19;8442700;28;20059;-79
2022/06/25 16:35:35;;;;;;;5.03;2.50;;;;;;;32.52;30.83;98913.59;8466294;28;20044;-78
2022/06/25 16:39:36;;;;;;;6.82;2.22;;;;;;;32.11;31.54;98918.41;8431796;28;20051;-81
2022/06/25 16:47:57;;;;;;;5.72;2.60;;;;;;;32.23;31.49;98922.34;8466349;28;20059;-82
2022/06/25 16:51:59;;;;;;;5.53;2.60;;;;;;;32.35;31.04;98915.88;8463592;28;20074;-81
2022/06/25 16:56:01;;;;;;;6.93;2.55;;;;;;;32.76;30.82;98923.00;8460648;28;20106;-80
2022/06/25 17:00:04;;;;;;;7.90;2.42;;;;;;;32.23;31.48;98925.91;8463979;28;20055;-81
2022/06/25 17:04:07;;;;;;;4.07;2.53;;;;;;;31.62;32.33;98934.25;8455522;28;20040;-80
2022/06/25 17:08:08;;;;;;;5.90;3.30;;;;;;;31.00;33.62;98937.53;8462760;28;20105;-81
2022/06/25 17:12:09;;;;;;;8.68;2.83;;;;;;;30.78;34.53;98935.91;8462035;28;20048;-80
2022/06/25 17:16:10;;;;;;;11.52;2.90;;;;;;;30.54;35.03;98941.88;8454170;28;20047;-80
2022/06/25 17:20:11;;;;;;;12.30;2.97;;;;;;;30.24;35.03;98936.84;8461440;28;20471;-81
2022/06/25 17:24:12;;;;;;;9.73;3.25;;;;;;;29.97;35.44;98933.69;8462269;28;20052;-80
2022/06/25 17:28:13;;;;;;;7.32;2.72;;;;;;;29.70;36.34;98936.81;8460912;28;20040;-80
2022/06/25 17:32:14;;;;;;;8.00;3.30;;;;;;;29.53;36.33;98933.31;8442392;28;20142;-81
2022/06/25 17:36:15;;;;;;;6.18;3.03;;;;;;;29.44;36.63;98941.53;8482909;27;20183;-80
2022/06/25 17:40:16;;;;;;;10.63;3.30;;;;;;;29.29;37.37;98945.88;8442505;28;20043;-81
2022/06/25 17:44:17;;;;;;;6.97;2.90;;;;;;;29.17;37.74;98946.59;8435327;28;20044;-81
2022/06/25 17:48:18;;;;;;;8.18;3.33;;;;;;;29.10;37.88;98953.13;8434257;28;20112;-80
2022/06/25 17:52:19;;;;;;;5.50;3.00;;;;;;;28.91;38.17;98952.03;8442983;28;20062;-81
2022/06/25 17:56:20;;;;;;;6.40;2.80;;;;;;;28.83;38.40;98953.41;8448849;28;20055;-81
2022/06/25 18:00:25;;;;;;;6.90;2.90;;;;;;;28.72;38.92;98952.88;8447770;28;20059;-78
2022/06/25 18:04:26;;;;;;;5.85;2.97;;;;;;;28.61;39.76;98960.66;8442671;28;20102;-81
2022/06/25 18:08:27;;;;;;;9.40;3.45;;;;;;;28.46;40.00;98965.00;8436162;28;20133;-81
2022/06/25 18:12:29;;;;;;;6.05;3.05;;;;;;;28.30;40.61;98964.97;8443255;28;20048;-81
2022/06/25 18:16:30;;;;;;;6.13;3.15;;;;;;;28.16;41.20;98968.84;8428969;28;20132;-80
2022/06/25 18:20:31;;;;;;;9.60;3.30;;;;;;;27.96;41.94;98968.84;8443892;28;20104;-79
2022/06/25 18:24:32;;;;;;;8.10;3.20;;;;;;;27.75;42.67;98974.84;8440485;28;20044;-80
2022/06/25 18:28:33;;;;;;;5.07;3.17;;;;;;;27.52;43.55;98977.66;8445252;28;20059;-79
2022/06/25 18:32:34;;;;;;;7.70;3.08;;;;;;;27.25;44.34;98981.28;8443462;28;20517;-80
2022/06/25 18:36:36;;;;;;;8.50;3.40;;;;;;;27.02;44.98;98989.63;8436004;28;20047;-80
2022/06/25 18:40:38;;;;;;;9.20;4.00;;;;;;;26.80;45.91;98999.47;8461705;28;20048;-81
2022/06/25 18:44:41;;;;;;;8.57;3.67;;;;;;;26.58;46.48;98992.69;8457175;28;20044;-79
2022/06/25 18:48:42;;;;;;;13.10;3.60;;;;;;;26.37;47.38;98999.31;8464048;28;20475;-82
2022/06/25 18:52:43;;;;;;;8.50;3.85;;;;;;;26.15;48.31;99003.53;8463866;28;20422;-79
2022/06/25 18:56:44;;;;;;;7.55;3.70;;;;;;;25.94;48.85;99007.34;8461649;28;20111;-81
2022/06/25 19:00:47;;;;;;;9.02;4.22;;;;;;;25.75;49.52;99025.34;8463542;28;20043;-81
2022/06/25 19:04:50;;;;;;;7.25;3.55;;;;;;;25.55;50.08;99027.94;8462246;28;20475;-81
2022/06/25 19:08:51;;;;;;;13.30;5.10;;;;;;;25.36;50.70;99031.25;8463245;28;20503;-81
2022/06/25 19:12:52;;;;;;;8.45;4.07;;;;;;;25.19;51.15;99032.19;8463255;28;20047;-80
2022/06/25 19:16:53;;;;;;;12.27;3.90;;;;;;;24.98;52.03;99037.91;8463484;28;20093;-81
2022/06/25 19:20:55;;;;;;;7.32;3.97;;;;;;;24.80;52.57;99044.31;8462043;28;20055;-80
2022/06/25 19:24:56;;;;;;;9.80;4.18;;;;;;;24.63;52.72;99034.19;8462302;28;20100;-80
2022/06/25 19:28:58;;;;;;;11.98;4.38;;;;;;;24.48;53.03;99049.22;8461787;28;20114;-79
2022/06/25 19:32:59;;;;;;;11.23;4.00;;;;;;;24.33;53.36;99047.72;8450620;28;20138;-80
2022/06/25 19:37:00;;;;;;;14.23;4.30;;;;;;;24.18;53.94;99057.28;8457610;28;20043;-80